createdAt,value
2023-01-21T00:00:58.590Z,97.41
2023-01-21T00:03:26.972Z,97.19
2023-01-21T00:06:00.220Z,97.41
2023-01-21T00:08:27.375Z,97.06
2023-01-21T00:10:54.668Z,96.80
2023-01-21T00:13:21.885Z,96.97
2023-01-21T00:15:49.527Z,96.85
2023-01-21T00:18:17.842Z,96.93
2023-01-21T00:20:46.811Z,96.87
2023-01-21T00:23:13.681Z,96.80
2023-01-21T00:25:40.646Z,96.53
2023-01-21T00:28:08.458Z,96.72
2023-01-21T00:30:35.392Z,96.85
2023-01-21T00:33:02.170Z,96.35
2023-01-21T00:35:29.038Z,96.91
2023-01-21T00:37:57.220Z,96.43
2023-01-21T00:40:24.822Z,96.93
2023-01-21T00:42:51.816Z,96.90
2023-01-21T00:45:21.099Z,96.62
2023-01-21T00:47:48.060Z,96.90
2023-01-21T00:50:15.260Z,96.67
2023-01-21T00:52:42.606Z,96.53
2023-01-21T00:55:11.314Z,96.19
2023-01-21T00:57:38.307Z,96.49
2023-01-21T01:00:09.401Z,96.50
2023-01-21T01:02:36.287Z,96.52
2023-01-21T01:05:04.013Z,97.16
2023-01-21T01:07:30.871Z,96.74
2023-01-21T01:09:58.271Z,96.79
2023-01-21T01:12:28.825Z,96.94
2023-01-21T01:14:55.853Z,96.87
2023-01-21T01:17:22.875Z,96.95
2023-01-21T01:19:49.637Z,96.97
2023-01-21T01:22:17.159Z,96.77
2023-01-21T01:24:44.338Z,96.90
2023-01-21T01:27:11.326Z,96.75
2023-01-21T01:29:39.580Z,96.67
2023-01-21T01:32:06.360Z,96.33
2023-01-21T01:34:33.388Z,96.74
2023-01-21T01:37:00.435Z,96.53
2023-01-21T01:39:27.547Z,96.53
2023-01-21T01:41:54.395Z,96.88
2023-01-21T01:44:58.089Z,96.77
2023-01-21T01:47:30.636Z,96.87
2023-01-21T01:50:00.063Z,97.07
2023-01-21T01:52:28.116Z,96.82
2023-01-21T01:54:58.387Z,97.09
2023-01-21T01:57:32.379Z,97.11
2023-01-21T02:00:04.721Z,96.82
2023-01-21T02:02:32.966Z,96.96
2023-01-21T02:05:05.774Z,96.96
2023-01-21T02:07:37.105Z,96.77
2023-01-21T02:10:03.925Z,97.38
2023-01-21T02:12:30.845Z,97.18
2023-01-21T02:14:58.248Z,97.04
2023-01-21T02:17:41.134Z,97.24
2023-01-21T02:20:49.448Z,97.16
2023-01-21T02:23:24.186Z,97.19
2023-01-21T02:26:19.071Z,97.26
2023-01-21T02:29:24.964Z,96.92
2023-01-21T02:32:12.291Z,97.35
2023-01-21T02:34:48.140Z,97.54
2023-01-21T02:37:22.070Z,97.47
2023-01-21T02:40:01.298Z,97.53
2023-01-21T02:42:40.108Z,97.20
2023-01-21T02:45:17.390Z,97.36
2023-01-21T02:47:49.835Z,96.97
2023-01-21T02:50:22.452Z,97.40
2023-01-21T02:52:55.763Z,97.73
2023-01-21T02:55:27.010Z,97.59
2023-01-21T02:57:56.793Z,97.64
2023-01-21T03:00:27.683Z,97.90
2023-01-21T03:03:17.859Z,97.96
2023-01-21T03:06:20.041Z,97.92
2023-01-21T03:08:54.071Z,98.03
2023-01-21T03:11:22.275Z,98.10
2023-01-21T03:13:58.029Z,98.04
2023-01-21T03:16:32.700Z,98.29
2023-01-21T03:19:04.344Z,98.23
2023-01-21T03:21:34.726Z,98.25
2023-01-21T03:24:03.996Z,98.19
2023-01-21T03:26:33.954Z,98.13
2023-01-21T03:29:09.157Z,98.09
2023-01-21T03:31:40.135Z,98.36
2023-01-21T03:34:11.655Z,97.93
2023-01-21T03:36:44.533Z,97.70
2023-01-21T03:39:17.590Z,97.86
2023-01-21T03:41:47.490Z,98.28
2023-01-21T03:44:14.451Z,97.91
2023-01-21T03:46:49.858Z,97.97
2023-01-21T03:49:22.987Z,97.84
2023-01-21T03:51:54.397Z,98.23
2023-01-21T03:54:22.977Z,97.89
2023-01-21T03:56:50.033Z,98.01
2023-01-21T03:59:16.988Z,97.71
2023-01-21T04:01:43.918Z,98.41
2023-01-21T04:04:10.923Z,98.29
2023-01-21T04:06:37.990Z,98.25
2023-01-21T04:09:05.269Z,98.22
2023-01-21T04:11:35.690Z,98.65
2023-01-21T04:14:02.551Z,98.27
2023-01-21T04:16:30.687Z,98.48
2023-01-21T04:18:57.552Z,97.93
2023-01-21T04:21:25.532Z,98.23
2023-01-21T04:23:52.265Z,98.18
2023-01-21T04:26:21.063Z,98.22
2023-01-21T04:28:50.989Z,98.73
2023-01-21T04:31:17.890Z,98.38
2023-01-21T04:33:44.957Z,99.00
2023-01-21T04:36:14.989Z,98.84
2023-01-21T04:38:42.188Z,99.31
2023-01-21T04:41:09.196Z,98.93
2023-01-21T04:43:36.450Z,99.58
2023-01-21T04:46:08.953Z,99.68
2023-01-21T04:48:37.505Z,99.63
2023-01-21T04:51:07.159Z,99.20
2023-01-21T04:53:34.375Z,99.94
2023-01-21T04:56:03.895Z,99.85
2023-01-21T04:58:32.519Z,99.41
2023-01-21T05:00:59.571Z,99.29
2023-01-21T05:03:30.128Z,99.26
2023-01-21T05:05:59.400Z,99.56
2023-01-21T05:08:26.431Z,99.69
2023-01-21T05:10:53.216Z,99.46
2023-01-21T05:13:20.385Z,99.33
2023-01-21T05:15:47.734Z,99.35
2023-01-21T05:18:17.223Z,100.00
2023-01-21T05:20:45.603Z,99.60
2023-01-21T05:23:12.471Z,100.00
2023-01-21T05:25:40.522Z,100.00
2023-01-21T05:28:07.434Z,99.69
2023-01-21T05:30:34.453Z,99.65
2023-01-21T05:33:04.186Z,99.49
2023-01-21T05:35:33.396Z,99.98
2023-01-21T05:38:01.507Z,99.55
2023-01-21T05:40:28.554Z,99.67
2023-01-21T05:42:55.388Z,100.00
2023-01-21T05:45:22.953Z,99.29
2023-01-21T05:47:49.916Z,99.20
2023-01-21T05:50:17.381Z,100.00
2023-01-21T05:52:44.499Z,99.78
2023-01-21T05:55:12.716Z,99.64
2023-01-21T05:57:42.380Z,100.00
2023-01-21T06:00:10.430Z,99.90
2023-01-21T06:02:37.750Z,100.00
2023-01-21T06:05:06.147Z,100.00
2023-01-21T06:07:33.019Z,100.00
2023-01-21T06:10:00.279Z,100.00
2023-01-21T06:12:35.604Z,100.00
2023-01-21T06:15:02.609Z,100.00
2023-01-21T06:17:32.081Z,100.00
2023-01-21T06:19:59.448Z,100.00
2023-01-21T06:22:26.468Z,100.00
2023-01-21T06:24:53.436Z,100.00
2023-01-21T06:27:20.636Z,100.00
2023-01-21T06:29:49.679Z,100.00
2023-01-21T06:32:18.260Z,99.97
2023-01-21T06:34:46.786Z,100.00
2023-01-21T06:37:15.565Z,100.00
2023-01-21T06:39:46.752Z,99.96
2023-01-21T06:42:20.249Z,100.00
2023-01-21T06:44:52.126Z,99.88
2023-01-21T06:47:18.870Z,99.78
2023-01-21T06:49:48.169Z,99.82
2023-01-21T06:52:15.066Z,99.83
2023-01-21T06:54:43.616Z,99.94
2023-01-21T06:57:25.593Z,99.53
2023-01-21T06:59:53.910Z,99.57
2023-01-21T07:02:23.218Z,100.00
2023-01-21T07:04:50.212Z,99.42
2023-01-21T07:07:22.241Z,99.27
2023-01-21T07:10:39.500Z,99.83
2023-01-21T07:13:06.836Z,99.86
2023-01-21T07:15:45.302Z,99.85
2023-01-21T07:18:15.572Z,100.00
2023-01-21T07:20:42.492Z,99.43
2023-01-21T07:23:09.515Z,99.77
2023-01-21T07:25:36.358Z,99.50
2023-01-21T07:28:03.702Z,99.72
2023-01-21T07:30:30.798Z,99.66
2023-01-21T07:33:05.333Z,99.72
2023-01-21T07:35:32.299Z,99.49
2023-01-21T07:37:59.362Z,99.82
2023-01-21T07:40:30.845Z,99.67
2023-01-21T07:42:57.757Z,99.68
2023-01-21T07:45:26.178Z,99.62
2023-01-21T07:47:53.767Z,99.67
2023-01-21T07:50:21.905Z,99.71
2023-01-21T07:52:48.675Z,99.90
2023-01-21T07:55:15.862Z,99.61
2023-01-21T07:57:43.187Z,99.40
2023-01-21T08:00:11.358Z,99.65
2023-01-21T08:02:38.421Z,99.37
2023-01-21T08:05:06.040Z,99.61
2023-01-21T08:07:34.834Z,99.72
2023-01-21T08:10:05.584Z,99.71
2023-01-21T08:12:32.754Z,99.28
2023-01-21T08:14:59.978Z,99.65
2023-01-21T08:17:27.093Z,99.48
2023-01-21T08:19:54.011Z,99.13
2023-01-21T08:22:22.155Z,99.82
2023-01-21T08:24:50.329Z,99.84
2023-01-21T08:27:19.761Z,99.97
2023-01-21T08:29:46.554Z,99.54
2023-01-21T08:32:13.542Z,99.86
2023-01-21T08:34:40.317Z,99.58
2023-01-21T08:37:08.924Z,100.00
2023-01-21T08:39:35.711Z,99.90
2023-01-21T08:42:05.088Z,100.00
2023-01-21T08:44:32.826Z,100.00
2023-01-21T08:46:59.784Z,100.00
2023-01-21T08:49:32.228Z,100.00
2023-01-21T08:51:59.416Z,100.00
2023-01-21T08:54:26.185Z,100.00
2023-01-21T08:56:52.921Z,100.00
2023-01-21T08:59:21.207Z,100.00
2023-01-21T09:01:48.256Z,100.00
2023-01-21T09:07:34.273Z,100.00
2023-01-21T09:10:03.483Z,100.00
2023-01-21T09:12:31.932Z,100.00
2023-01-21T09:15:04.324Z,100.00
2023-01-21T09:17:31.196Z,100.00
2023-01-21T09:20:00.431Z,100.00
2023-01-21T09:22:30.116Z,100.00
2023-01-21T09:25:04.509Z,100.00
2023-01-21T09:27:31.538Z,100.00
2023-01-21T09:30:00.650Z,100.00
2023-01-21T09:32:33.723Z,100.00
2023-01-21T09:35:01.059Z,100.00
2023-01-21T09:37:27.944Z,100.00
2023-01-21T09:39:58.084Z,100.00
2023-01-21T09:42:35.642Z,100.00
2023-01-21T09:45:05.141Z,100.00
2023-01-21T09:47:40.665Z,100.00
2023-01-21T09:52:59.861Z,100.00
2023-01-21T09:55:32.340Z,100.00
2023-01-21T09:58:32.548Z,100.00
2023-01-21T10:01:12.795Z,100.00
2023-01-21T10:03:48.481Z,100.00
2023-01-21T10:06:33.303Z,100.00
2023-01-21T10:09:47.861Z,100.00
2023-01-21T10:12:27.025Z,100.00
2023-01-21T10:15:27.255Z,100.00
2023-01-21T10:18:03.619Z,100.00
2023-01-21T10:20:33.697Z,100.00
2023-01-21T10:23:06.092Z,100.00
2023-01-21T10:25:35.294Z,100.00
2023-01-21T10:28:10.128Z,100.00
2023-01-21T10:30:40.262Z,100.00
2023-01-21T10:33:20.788Z,100.00
2023-01-21T10:36:04.345Z,100.00
2023-01-21T10:38:48.156Z,100.00
2023-01-21T10:41:36.930Z,100.00
2023-01-21T10:44:14.706Z,100.00
2023-01-21T10:46:49.699Z,100.00
2023-01-21T10:49:41.125Z,100.00
2023-01-21T10:52:13.126Z,100.00
2023-01-21T10:54:50.539Z,100.00
2023-01-21T10:57:35.292Z,100.00
2023-01-21T11:00:04.615Z,100.00
2023-01-21T11:02:33.294Z,100.00
2023-01-21T11:05:04.921Z,100.00
2023-01-21T11:07:35.488Z,100.00
2023-01-21T11:10:04.036Z,100.00
2023-01-21T11:12:31.003Z,100.00
2023-01-21T11:14:59.459Z,100.00
2023-01-21T11:17:34.109Z,100.00
2023-01-21T11:20:07.004Z,100.00
2023-01-21T11:22:51.853Z,100.00
2023-01-21T11:25:26.499Z,100.00
2023-01-21T11:27:53.614Z,100.00
2023-01-21T11:30:52.026Z,100.00
2023-01-21T11:33:24.650Z,100.00
2023-01-21T11:35:54.480Z,100.00
2023-01-21T11:38:31.468Z,100.00
2023-01-21T11:41:03.829Z,100.00
2023-01-21T11:43:39.850Z,100.00
2023-01-21T11:46:28.828Z,100.00
2023-01-21T11:48:57.988Z,100.00
2023-01-21T11:51:26.699Z,100.00
2023-01-21T11:54:08.460Z,100.00
2023-01-21T11:56:36.828Z,100.00
2023-01-21T11:59:21.337Z,100.00
2023-01-21T12:01:53.417Z,100.00
2023-01-21T12:04:20.292Z,100.00
2023-01-21T12:06:48.935Z,100.00
2023-01-21T12:09:18.740Z,100.00
2023-01-21T12:11:50.017Z,100.00
2023-01-21T12:14:26.189Z,100.00
2023-01-21T12:17:04.136Z,100.00
2023-01-21T12:19:51.608Z,100.00
2023-01-21T12:22:36.015Z,100.00
2023-01-21T12:25:22.225Z,99.94
2023-01-21T12:28:05.932Z,97.25
2023-01-21T12:30:41.073Z,96.32
2023-01-21T12:33:15.667Z,94.48
2023-01-21T12:35:49.397Z,94.88
2023-01-21T12:38:21.647Z,94.05
2023-01-21T12:40:55.134Z,85.33
2023-01-21T12:43:26.184Z,84.29
2023-01-21T12:45:57.112Z,82.39
2023-01-21T12:48:29.543Z,80.35
2023-01-21T12:51:02.580Z,79.16
2023-01-21T12:53:41.115Z,80.25
2023-01-21T12:56:27.285Z,79.32
2023-01-21T12:59:00.096Z,79.11
2023-01-21T13:01:48.564Z,75.98
2023-01-21T13:04:32.791Z,74.28
2023-01-21T13:07:05.558Z,72.14
2023-01-21T13:09:43.064Z,70.01
2023-01-21T13:12:15.985Z,68.88
2023-01-21T13:14:48.275Z,65.76
2023-01-21T13:17:19.753Z,64.26
2023-01-21T13:19:46.306Z,53.67
2023-01-21T13:22:25.387Z,67.36
2023-01-21T13:25:04.869Z,63.85
2023-01-21T13:27:41.181Z,64.86
2023-01-21T13:30:21.377Z,64.74
2023-01-21T13:32:56.757Z,66.57
2023-01-21T13:35:33.972Z,61.44
2023-01-21T13:38:13.041Z,64.50
2023-01-21T13:40:51.405Z,65.71
2023-01-21T13:43:34.000Z,65.35
2023-01-21T13:46:17.015Z,64.21
2023-01-21T13:48:59.895Z,64.60
2023-01-21T13:51:36.134Z,65.93
2023-01-21T13:54:25.533Z,67.20
2023-01-21T13:57:07.773Z,66.77
2023-01-21T13:59:40.248Z,67.01
2023-01-21T14:02:13.934Z,66.73
2023-01-21T14:04:47.216Z,66.73
2023-01-21T14:07:23.288Z,66.71
2023-01-21T14:09:55.965Z,66.75
2023-01-21T14:12:38.560Z,67.32
2023-01-21T14:15:28.968Z,68.20
2023-01-21T14:18:24.686Z,68.55
2023-01-21T14:21:12.759Z,68.66
2023-01-21T14:24:18.388Z,68.24
2023-01-21T14:27:13.707Z,67.67
2023-01-21T14:29:47.777Z,68.63
2023-01-21T14:32:24.083Z,68.28
2023-01-21T14:35:03.701Z,67.67
2023-01-21T14:37:34.868Z,67.44
2023-01-21T14:40:12.883Z,66.06
2023-01-21T14:42:41.915Z,66.93
2023-01-21T14:45:11.775Z,66.60
2023-01-21T14:47:44.653Z,67.56
2023-01-21T14:50:11.776Z,68.21
2023-01-21T14:52:44.225Z,68.19
2023-01-21T14:55:32.881Z,69.55
2023-01-21T14:58:01.201Z,69.07
2023-01-21T15:00:34.579Z,69.28
2023-01-21T15:03:14.751Z,68.85
2023-01-21T15:05:44.629Z,69.50
2023-01-21T15:08:21.911Z,69.96
2023-01-21T15:10:52.394Z,70.35
2023-01-21T15:13:30.762Z,70.85
2023-01-21T15:16:14.644Z,71.22
2023-01-21T15:18:44.062Z,70.47
2023-01-21T15:21:37.210Z,71.40
2023-01-21T15:24:28.885Z,71.38
2023-01-21T15:27:17.219Z,70.85
2023-01-21T15:29:45.865Z,71.44
2023-01-21T15:32:22.371Z,71.95
2023-01-21T15:34:52.102Z,70.67
2023-01-21T15:37:22.627Z,71.25
2023-01-21T15:39:50.226Z,71.61
2023-01-21T15:42:27.127Z,71.43
2023-01-21T15:45:13.802Z,71.49
2023-01-21T15:48:04.954Z,72.38
2023-01-21T15:50:39.453Z,72.49
2023-01-21T15:53:21.584Z,72.22
2023-01-21T15:56:11.530Z,72.65
2023-01-21T15:58:51.273Z,72.76
2023-01-21T16:01:30.891Z,72.46
2023-01-21T16:04:29.027Z,72.51
2023-01-21T16:07:14.512Z,73.06
2023-01-21T16:09:57.942Z,72.85
2023-01-21T16:12:34.621Z,73.01
2023-01-21T16:15:15.517Z,73.20
2023-01-21T16:18:01.488Z,73.58
2023-01-21T16:20:32.422Z,73.87
2023-01-21T16:23:03.605Z,74.30
2023-01-21T16:25:30.700Z,74.23
2023-01-21T16:27:57.605Z,74.49
2023-01-21T16:30:28.234Z,74.55
2023-01-21T16:33:10.759Z,74.79
2023-01-21T16:35:50.790Z,75.05
2023-01-21T16:38:20.146Z,75.52
2023-01-21T16:40:49.413Z,75.06
2023-01-21T16:43:24.264Z,75.66
2023-01-21T16:45:58.129Z,75.90
2023-01-21T16:48:28.064Z,75.99
2023-01-21T16:50:56.869Z,76.31
2023-01-21T16:53:33.636Z,76.81
2023-01-21T16:56:16.563Z,76.47
2023-01-21T16:58:53.633Z,76.95
2023-01-21T17:01:26.824Z,76.55
2023-01-21T17:03:56.963Z,76.83
2023-01-21T17:06:29.207Z,76.96
2023-01-21T17:09:00.494Z,77.49
2023-01-21T17:11:27.403Z,78.97
2023-01-21T17:13:54.574Z,77.58
2023-01-21T17:16:27.657Z,77.42
2023-01-21T17:18:57.959Z,77.52
2023-01-21T17:21:35.508Z,77.73
2023-01-21T17:24:05.691Z,77.77
2023-01-21T17:26:37.036Z,78.07
2023-01-21T17:29:18.521Z,78.38
2023-01-21T17:31:54.119Z,78.77
2023-01-21T17:34:22.779Z,78.11
2023-01-21T17:36:52.940Z,78.39
2023-01-21T17:39:56.282Z,79.27
2023-01-21T17:42:26.007Z,79.01
2023-01-21T17:44:56.106Z,78.97
2023-01-21T17:47:30.470Z,78.97
2023-01-21T17:50:00.346Z,79.37
2023-01-21T17:52:29.813Z,79.10
2023-01-21T17:55:12.732Z,79.60
2023-01-21T17:57:41.015Z,79.51
2023-01-21T18:00:34.380Z,79.63
2023-01-21T18:03:02.260Z,79.46
2023-01-21T18:05:29.455Z,79.80
2023-01-21T18:08:02.616Z,79.80
2023-01-21T18:10:30.384Z,79.79
2023-01-21T18:13:02.950Z,80.27
2023-01-21T18:15:32.044Z,80.33
2023-01-21T18:18:01.542Z,80.27
2023-01-21T18:20:33.216Z,80.51
2023-01-21T18:23:01.703Z,80.25
2023-01-21T18:25:31.103Z,80.29
2023-01-21T18:27:58.357Z,81.09
2023-01-21T18:30:26.975Z,81.08
2023-01-21T18:32:56.577Z,81.26
2023-01-21T18:35:27.389Z,80.71
2023-01-21T18:37:54.556Z,81.98
2023-01-21T18:40:41.449Z,81.36
2023-01-21T18:43:13.703Z,81.36
2023-01-21T18:45:40.641Z,81.30
2023-01-21T18:48:11.368Z,81.50
2023-01-21T18:50:38.243Z,81.39
2023-01-21T18:53:05.167Z,81.82
2023-01-21T18:55:34.145Z,81.62
2023-01-21T18:58:02.293Z,81.97
2023-01-21T19:00:31.084Z,81.89
2023-01-21T19:02:59.652Z,81.66
2023-01-21T19:05:30.464Z,82.11
2023-01-21T19:07:57.485Z,82.03
2023-01-21T19:10:27.004Z,82.53
2023-01-21T19:12:55.372Z,82.17
2023-01-21T19:15:24.670Z,82.74
2023-01-21T19:17:52.548Z,82.92
2023-01-21T19:20:21.752Z,82.91
2023-01-21T19:22:50.210Z,83.35
2023-01-21T19:25:20.651Z,82.95
2023-01-21T19:27:50.262Z,83.18
2023-01-21T19:30:32.498Z,83.66
2023-01-21T19:33:00.250Z,83.82
2023-01-21T19:35:30.763Z,83.88
2023-01-21T19:37:58.017Z,83.82
2023-01-21T19:40:27.205Z,84.17
2023-01-21T19:42:54.332Z,84.40
2023-01-21T19:45:24.505Z,84.82
2023-01-21T19:47:51.848Z,85.17
2023-01-21T19:50:21.019Z,85.09
2023-01-21T19:52:49.909Z,85.39
2023-01-21T19:55:18.559Z,85.62
2023-01-21T19:57:46.882Z,85.46
2023-01-21T20:00:21.007Z,85.71
2023-01-21T20:02:49.318Z,86.03
2023-01-21T20:05:16.920Z,86.37
2023-01-21T20:07:45.054Z,86.73
2023-01-21T20:10:13.979Z,86.87
2023-01-21T20:12:42.689Z,87.30
2023-01-21T20:15:10.674Z,87.61
2023-01-21T20:17:38.727Z,87.46
2023-01-21T20:20:18.451Z,87.29
2023-01-21T20:22:45.292Z,87.43
2023-01-21T20:25:16.663Z,87.37
2023-01-21T20:27:46.464Z,87.52
2023-01-21T20:30:17.696Z,87.89
2023-01-21T20:32:46.110Z,89.01
2023-01-21T20:35:13.745Z,87.98
2023-01-21T20:37:42.545Z,87.70
2023-01-21T20:40:15.845Z,87.88
2023-01-21T20:42:43.092Z,87.91
2023-01-21T20:45:12.391Z,88.06
2023-01-21T20:47:49.585Z,87.98
2023-01-21T20:50:20.319Z,88.36
2023-01-21T20:52:49.284Z,88.38
2023-01-21T20:55:20.951Z,88.30
2023-01-21T20:57:48.230Z,88.03
2023-01-21T21:00:17.635Z,88.16
2023-01-21T21:02:45.030Z,87.93
2023-01-21T21:05:12.521Z,88.23
2023-01-21T21:07:39.423Z,88.00
2023-01-21T21:10:17.988Z,87.62
2023-01-21T21:12:45.531Z,87.28
2023-01-21T21:15:13.673Z,87.17
2023-01-21T21:17:40.571Z,86.91
2023-01-21T21:20:16.100Z,87.75
2023-01-21T21:22:43.116Z,87.14
2023-01-21T21:25:14.801Z,87.56
2023-01-21T21:27:43.328Z,87.53
2023-01-21T21:30:14.490Z,87.10
2023-01-21T21:32:41.973Z,86.98
2023-01-21T21:35:27.669Z,87.38
2023-01-21T21:37:58.723Z,87.02
2023-01-21T21:40:27.942Z,87.18
2023-01-21T21:42:55.993Z,87.13
2023-01-21T21:45:22.843Z,87.27
2023-01-21T21:47:50.024Z,87.32
2023-01-21T21:50:16.862Z,87.28
2023-01-21T21:52:43.584Z,87.64
2023-01-21T21:55:10.922Z,87.26
2023-01-21T21:57:39.062Z,87.33
2023-01-21T22:00:07.340Z,87.29
2023-01-21T22:02:34.161Z,87.73
2023-01-21T22:05:01.201Z,87.16
2023-01-21T22:07:28.021Z,86.71
2023-01-21T22:09:55.248Z,87.51
2023-01-21T22:12:22.233Z,86.69
2023-01-21T22:14:50.423Z,87.02
2023-01-21T22:17:17.205Z,86.89
2023-01-21T22:19:44.014Z,87.01
2023-01-21T22:22:10.981Z,87.34
2023-01-21T22:24:37.681Z,86.79
2023-01-21T22:27:04.402Z,87.06
2023-01-21T22:29:32.194Z,86.99
2023-01-21T22:32:00.674Z,86.97
2023-01-21T22:34:27.422Z,86.78
2023-01-21T22:36:54.120Z,86.79
2023-01-21T22:39:21.156Z,86.76
2023-01-21T22:41:48.137Z,86.87
2023-01-21T22:44:15.357Z,86.70
2023-01-21T22:46:42.317Z,86.97
2023-01-21T22:49:12.623Z,86.60
2023-01-21T22:51:48.745Z,86.92
2023-01-21T22:54:15.601Z,86.63
2023-01-21T22:56:51.990Z,86.73
2023-01-21T22:59:20.189Z,86.69
2023-01-21T23:01:46.953Z,86.45
2023-01-21T23:04:15.394Z,86.31
2023-01-21T23:06:42.434Z,86.47
2023-01-21T23:09:11.542Z,86.76
2023-01-21T23:11:38.901Z,86.20
2023-01-21T23:14:07.311Z,86.78
2023-01-21T23:16:34.502Z,86.72
2023-01-21T23:19:01.354Z,86.46
2023-01-21T23:21:29.717Z,87.13
2023-01-21T23:23:56.709Z,86.60
2023-01-21T23:26:23.505Z,87.11
2023-01-21T23:28:54.042Z,86.97
2023-01-21T23:31:21.100Z,87.20
2023-01-21T23:33:49.810Z,87.15
2023-01-21T23:36:17.362Z,87.59
2023-01-21T23:38:45.810Z,87.66
2023-01-21T23:41:14.523Z,87.57
2023-01-21T23:43:41.445Z,87.58
2023-01-21T23:46:11.490Z,87.77
2023-01-21T23:48:39.089Z,87.66
2023-01-21T23:51:09.363Z,87.74
2023-01-21T23:53:36.137Z,87.86
2023-01-21T23:56:06.407Z,87.58
2023-01-21T23:58:34.488Z,87.33
